createdAt,value
2023-03-29T00:00:51.444Z,22.50
2023-03-29T00:06:05.860Z,22.30
2023-03-29T00:11:09.754Z,22.20
2023-03-29T00:16:14.074Z,22.30
2023-03-29T00:21:18.115Z,22.30
2023-03-29T00:26:22.367Z,22.10
2023-03-29T00:31:26.835Z,22.00
2023-03-29T00:36:30.860Z,22.00
2023-03-29T00:41:34.974Z,22.00
2023-03-29T00:46:39.133Z,22.00
2023-03-29T00:51:44.036Z,22.00
2023-03-29T00:56:51.572Z,22.10
2023-03-29T01:02:02.649Z,22.20
2023-03-29T01:07:18.921Z,22.30
2023-03-29T01:12:31.509Z,22.30
2023-03-29T01:17:35.479Z,22.30
2023-03-29T01:23:01.173Z,22.30
2023-03-29T01:28:11.046Z,22.30
2023-03-29T01:33:24.000Z,22.30
2023-03-29T01:38:36.396Z,22.30
2023-03-29T01:43:52.021Z,22.20
2023-03-29T01:49:01.904Z,22.20
2023-03-29T01:54:13.225Z,22.10
2023-03-29T01:59:22.944Z,22.10
2023-03-29T02:04:36.252Z,22.10
2023-03-29T02:09:41.524Z,22.10
2023-03-29T02:14:46.386Z,22.20
2023-03-29T02:20:21.081Z,22.40
2023-03-29T02:25:26.230Z,22.40
2023-03-29T02:30:48.838Z,22.50
2023-03-29T02:35:59.072Z,22.50
2023-03-29T02:41:04.408Z,22.50
2023-03-29T02:46:08.726Z,22.40
2023-03-29T02:51:23.274Z,22.40
2023-03-29T02:56:27.413Z,22.40
2023-03-29T03:01:31.461Z,22.60
2023-03-29T03:06:37.117Z,22.50
2023-03-29T03:11:43.508Z,22.50
2023-03-29T03:16:47.888Z,22.50
2023-03-29T03:21:52.305Z,22.40
2023-03-29T03:26:58.865Z,22.30
2023-03-29T03:32:03.136Z,22.30
2023-03-29T03:37:30.687Z,22.20
2023-03-29T03:42:35.209Z,22.10
2023-03-29T03:47:39.977Z,22.00
2023-03-29T03:53:00.582Z,22.10
2023-03-29T03:58:07.778Z,22.00
2023-03-29T04:03:12.201Z,22.00
2023-03-29T04:08:17.815Z,21.90
2023-03-29T04:13:44.738Z,21.80
2023-03-29T04:19:03.823Z,21.70
2023-03-29T04:24:08.274Z,21.70
2023-03-29T04:29:13.109Z,21.60
2023-03-29T04:34:23.042Z,21.60
2023-03-29T04:39:34.268Z,21.50
2023-03-29T04:44:43.987Z,21.50
2023-03-29T04:49:49.927Z,21.40
2023-03-29T04:55:04.418Z,21.40
2023-03-29T05:00:33.023Z,21.70
2023-03-29T05:05:52.164Z,21.90
2023-03-29T05:10:56.715Z,22.00
2023-03-29T05:16:04.711Z,22.10
2023-03-29T05:21:09.807Z,22.10
2023-03-29T05:26:15.753Z,22.10
2023-03-29T05:31:24.341Z,22.10
2023-03-29T05:36:30.983Z,22.10
2023-03-29T05:41:36.152Z,22.10
2023-03-29T05:46:57.770Z,22.10
2023-03-29T05:52:02.630Z,22.20
2023-03-29T05:57:07.524Z,22.20
2023-03-29T06:02:12.772Z,22.10
2023-03-29T06:07:21.584Z,22.10
2023-03-29T06:12:42.605Z,22.10
2023-03-29T06:17:47.714Z,22.10
2023-03-29T06:22:53.040Z,22.10
2023-03-29T06:27:57.268Z,22.10
2023-03-29T06:33:01.566Z,22.10
2023-03-29T06:38:21.302Z,22.10
2023-03-29T06:43:43.962Z,22.10
2023-03-29T06:48:53.619Z,22.10
2023-03-29T06:53:58.068Z,22.10
2023-03-29T06:59:02.427Z,22.20
2023-03-29T07:04:16.265Z,22.20
2023-03-29T07:09:40.474Z,22.30
2023-03-29T07:15:03.407Z,22.30
2023-03-29T07:20:27.498Z,22.30
2023-03-29T07:25:41.870Z,22.40
2023-03-29T07:30:46.919Z,22.40
2023-03-29T07:35:53.671Z,22.50
2023-03-29T07:40:58.983Z,22.50
2023-03-29T07:46:29.884Z,22.50
2023-03-29T07:51:34.467Z,22.60
2023-03-29T07:56:43.025Z,22.60
2023-03-29T08:01:55.833Z,22.60
2023-03-29T08:07:04.890Z,22.60
2023-03-29T08:12:27.024Z,22.60
2023-03-29T08:17:35.252Z,22.50
2023-03-29T08:22:39.978Z,22.50
2023-03-29T08:28:04.816Z,22.50
2023-03-29T08:33:19.236Z,22.50
2023-03-29T08:38:27.614Z,22.50
2023-03-29T08:43:53.371Z,22.40
2023-03-29T08:49:31.246Z,22.50
2023-03-29T08:54:43.110Z,22.50
2023-03-29T09:00:10.878Z,22.50
2023-03-29T09:05:26.994Z,22.50
2023-03-29T09:11:20.907Z,22.50
2023-03-29T09:16:41.549Z,22.50
2023-03-29T09:21:55.989Z,22.50
2023-03-29T09:27:11.383Z,22.50
2023-03-29T09:32:23.597Z,22.60
2023-03-29T09:37:37.458Z,22.60
2023-03-29T09:42:42.197Z,22.60
2023-03-29T09:47:58.458Z,22.60
2023-03-29T09:53:04.187Z,22.60
2023-03-29T09:58:19.176Z,22.60
2023-03-29T10:03:29.965Z,22.60
2023-03-29T10:08:57.383Z,22.60
2023-03-29T10:14:07.774Z,22.60
2023-03-29T10:19:35.355Z,22.70
2023-03-29T10:24:39.324Z,22.70
2023-03-29T10:29:43.844Z,22.60
2023-03-29T10:34:48.515Z,22.60
2023-03-29T10:39:54.784Z,22.60
2023-03-29T10:45:00.789Z,22.50
2023-03-29T10:50:07.780Z,22.40
2023-03-29T10:55:15.201Z,22.40
2023-03-29T11:00:29.830Z,22.40
2023-03-29T11:06:02.520Z,22.30
2023-03-29T11:11:15.520Z,22.30
2023-03-29T11:16:35.261Z,22.30
2023-03-29T11:21:56.567Z,22.30
2023-03-29T11:27:24.867Z,22.30
2023-03-29T11:32:36.247Z,22.30
2023-03-29T11:37:57.482Z,22.30
2023-03-29T11:43:06.020Z,22.30
2023-03-29T11:48:17.785Z,22.30
2023-03-29T11:53:36.713Z,22.30
2023-03-29T11:58:45.240Z,22.30
2023-03-29T12:03:57.453Z,22.40
2023-03-29T12:09:08.155Z,22.40
2023-03-29T12:14:12.177Z,22.40
2023-03-29T12:19:40.295Z,22.40
2023-03-29T12:24:49.212Z,22.40
2023-03-29T12:30:28.051Z,22.50
2023-03-29T12:36:13.248Z,22.50
2023-03-29T12:42:12.951Z,22.50
2023-03-29T12:47:45.414Z,22.60
2023-03-29T12:52:49.521Z,22.60
2023-03-29T12:58:11.153Z,22.60
2023-03-29T13:03:35.055Z,22.50
2023-03-29T13:08:44.827Z,22.50
2023-03-29T13:13:51.212Z,22.50
2023-03-29T13:19:04.341Z,22.50
2023-03-29T13:24:29.466Z,22.50
2023-03-29T13:29:53.733Z,22.50
2023-03-29T13:35:22.238Z,22.50
2023-03-29T13:40:44.795Z,22.60
2023-03-29T13:45:58.244Z,22.60
2023-03-29T13:51:24.789Z,22.50
2023-03-29T13:57:06.186Z,22.50
2023-03-29T14:02:20.263Z,22.50
2023-03-29T14:07:26.787Z,22.60
2023-03-29T14:12:39.462Z,22.60
2023-03-29T14:17:45.366Z,22.50
2023-03-29T14:22:50.212Z,22.50
2023-03-29T14:27:54.115Z,22.50
2023-03-29T14:32:58.496Z,22.50
2023-03-29T14:38:03.964Z,22.40
2023-03-29T14:43:11.531Z,22.40
2023-03-29T14:48:16.825Z,22.40
2023-03-29T14:53:23.260Z,22.40
2023-03-29T14:58:33.851Z,22.40
2023-03-29T15:03:49.866Z,22.40
2023-03-29T15:09:05.363Z,22.30
2023-03-29T15:14:16.654Z,22.30
2023-03-29T15:19:26.005Z,22.30
2023-03-29T15:24:32.501Z,22.30
2023-03-29T15:29:42.701Z,22.30
2023-03-29T15:34:47.842Z,22.30
2023-03-29T15:39:52.531Z,22.30
2023-03-29T15:44:56.823Z,22.30
2023-03-29T15:50:00.939Z,22.30
2023-03-29T15:55:05.609Z,22.20
2023-03-29T16:00:14.144Z,22.20
2023-03-29T16:05:18.465Z,22.30
2023-03-29T16:10:22.611Z,22.20
2023-03-29T16:15:27.693Z,22.30
2023-03-29T16:20:31.894Z,22.30
2023-03-29T16:25:40.814Z,22.30
2023-03-29T16:30:44.890Z,22.30
2023-03-29T16:35:49.220Z,22.20
2023-03-29T16:40:54.174Z,22.30
2023-03-29T16:45:58.459Z,22.10
2023-03-29T16:51:03.586Z,22.10
2023-03-29T16:56:08.240Z,22.00
2023-03-29T17:01:17.510Z,22.10
2023-03-29T17:06:22.525Z,22.10
2023-03-29T17:11:28.958Z,22.10
2023-03-29T17:16:33.302Z,22.10
2023-03-29T17:21:37.994Z,22.10
2023-03-29T17:26:43.897Z,22.00
2023-03-29T17:31:50.388Z,21.90
2023-03-29T17:36:56.646Z,22.00
2023-03-29T17:42:01.583Z,22.00
2023-03-29T17:47:13.050Z,21.90
2023-03-29T17:59:36.160Z,21.70
2023-03-29T18:04:43.107Z,21.70
2023-03-29T18:09:48.916Z,21.70
2023-03-29T18:14:57.822Z,21.70
2023-03-29T18:20:03.295Z,21.60
2023-03-29T18:25:09.893Z,21.60
2023-03-29T18:30:17.122Z,21.60
2023-03-29T18:35:23.593Z,21.60
2023-03-29T18:40:36.585Z,21.70
2023-03-29T18:45:43.973Z,22.00
2023-03-29T18:50:50.346Z,22.50
2023-03-29T18:56:02.342Z,22.70
2023-03-29T19:01:07.977Z,22.90
2023-03-29T19:06:15.079Z,23.00
2023-03-29T19:11:21.353Z,23.10
2023-03-29T19:16:29.876Z,23.20
2023-03-29T19:21:35.236Z,23.30
2023-03-29T19:26:42.905Z,23.30
2023-03-29T19:31:48.744Z,23.30
2023-03-29T19:36:55.792Z,23.30
2023-03-29T19:42:02.193Z,23.00
2023-03-29T19:47:07.510Z,23.10
2023-03-29T19:52:22.038Z,23.00
2023-03-29T19:57:31.119Z,22.90
2023-03-29T20:02:37.264Z,22.80
2023-03-29T20:07:42.911Z,22.70
2023-03-29T20:12:48.257Z,22.60
2023-03-29T20:17:58.482Z,22.50
2023-03-29T20:23:06.895Z,22.50
2023-03-29T20:28:13.584Z,22.60
2023-03-29T20:33:22.557Z,22.50
2023-03-29T20:38:26.858Z,22.40
2023-03-29T20:43:37.888Z,22.40
2023-03-29T20:48:53.591Z,22.30
2023-03-29T20:54:04.052Z,22.50
2023-03-29T20:59:11.001Z,22.50
2023-03-29T21:04:15.079Z,22.40
2023-03-29T21:09:21.631Z,22.40
2023-03-29T21:14:27.013Z,22.30
2023-03-29T21:19:30.953Z,22.20
2023-03-29T21:24:36.934Z,22.20
2023-03-29T21:29:40.761Z,22.20
2023-03-29T21:34:45.000Z,22.10
2023-03-29T21:39:49.942Z,22.10
2023-03-29T21:44:53.867Z,22.00
2023-03-29T21:49:58.330Z,22.10
2023-03-29T21:55:02.456Z,22.10
2023-03-29T22:00:11.512Z,22.10
2023-03-29T22:05:16.574Z,22.10
2023-03-29T22:10:23.562Z,22.00
2023-03-29T22:15:30.458Z,22.00
2023-03-29T22:20:34.705Z,21.90
2023-03-29T22:25:38.719Z,22.00
2023-03-29T22:30:42.971Z,21.90
2023-03-29T22:35:47.012Z,21.90
2023-03-29T22:40:51.432Z,21.90
2023-03-29T22:45:55.717Z,21.90
2023-03-29T22:51:00.219Z,21.80
2023-03-29T22:56:05.262Z,21.90
2023-03-29T23:01:09.541Z,21.80
2023-03-29T23:06:13.760Z,21.80
2023-03-29T23:11:17.863Z,21.90
2023-03-29T23:16:21.998Z,21.80
2023-03-29T23:21:28.276Z,22.00
2023-03-29T23:26:32.231Z,21.90
2023-03-29T23:31:36.723Z,21.80
2023-03-29T23:36:40.909Z,21.80
2023-03-29T23:41:44.748Z,21.80
2023-03-29T23:46:49.118Z,22.00
2023-03-29T23:51:53.217Z,22.40
2023-03-29T23:56:57.365Z,22.60
